createdAt,value
2023-08-15T00:00:21.868Z,4.30
2023-08-15T00:01:21.872Z,4.60
2023-08-15T00:02:21.846Z,4.70
2023-08-15T00:03:21.879Z,4.60
2023-08-15T00:04:21.817Z,4.10
2023-08-15T00:05:21.804Z,4.20
2023-08-15T00:06:21.805Z,4.30
2023-08-15T00:07:22.055Z,4.20
2023-08-15T00:08:21.783Z,3.90
2023-08-15T00:09:21.763Z,4.50
2023-08-15T00:10:21.756Z,4.50
2023-08-15T00:11:21.746Z,4.30
2023-08-15T00:12:21.735Z,4.60
2023-08-15T00:13:21.714Z,4.50
2023-08-15T00:14:21.752Z,4.40
2023-08-15T00:15:21.700Z,4.10
2023-08-15T00:16:21.729Z,4.40
2023-08-15T00:17:21.873Z,4.70
2023-08-15T00:18:21.664Z,4.30
2023-08-15T00:19:21.648Z,4.10
2023-08-15T00:20:21.652Z,4.20
2023-08-15T00:21:21.630Z,4.30
2023-08-15T00:22:21.623Z,4.50
2023-08-15T00:23:21.653Z,4.40
2023-08-15T00:24:21.612Z,4.10
2023-08-15T00:25:21.596Z,4.50
2023-08-15T00:26:21.582Z,4.20
2023-08-15T00:27:21.819Z,4.40
2023-08-15T00:28:21.561Z,4.40
2023-08-15T00:29:21.549Z,4.30
2023-08-15T00:30:21.548Z,4.40
2023-08-15T00:31:21.550Z,4.00
2023-08-15T00:32:21.517Z,4.10
2023-08-15T00:33:21.499Z,4.10
2023-08-15T00:34:21.501Z,3.90
2023-08-15T00:35:21.478Z,4.60
2023-08-15T00:36:21.475Z,4.20
2023-08-15T00:37:21.614Z,4.10
2023-08-15T00:38:21.494Z,4.10
2023-08-15T00:39:21.444Z,4.50
2023-08-15T00:40:21.431Z,4.50
2023-08-15T00:41:21.422Z,4.00
2023-08-15T00:42:21.407Z,4.40
2023-08-15T00:43:21.408Z,4.20
2023-08-15T00:44:21.392Z,4.70
2023-08-15T00:45:21.395Z,4.30
2023-08-15T00:46:21.401Z,4.50
2023-08-15T00:47:21.645Z,4.30
2023-08-15T00:48:21.342Z,4.40
2023-08-15T00:49:21.333Z,4.30
2023-08-15T00:50:21.321Z,4.40
2023-08-15T00:51:21.306Z,4.00
2023-08-15T00:52:21.296Z,4.40
2023-08-15T00:53:21.293Z,4.20
2023-08-15T00:54:21.285Z,4.40
2023-08-15T00:55:21.256Z,4.50
2023-08-15T00:56:21.254Z,4.40
2023-08-15T00:57:21.481Z,4.10
2023-08-15T00:58:21.241Z,4.10
2023-08-15T00:59:21.220Z,4.60
2023-08-15T01:00:21.242Z,4.50
2023-08-15T01:01:21.216Z,4.50
2023-08-15T01:02:21.204Z,4.20
2023-08-15T01:03:21.218Z,4.30
2023-08-15T01:04:21.172Z,5.10
2023-08-15T01:05:21.154Z,4.40
2023-08-15T01:06:21.142Z,4.50
2023-08-15T01:07:21.309Z,4.30
2023-08-15T01:08:21.129Z,4.10
2023-08-15T01:09:21.105Z,4.00
2023-08-15T01:10:21.110Z,4.30
2023-08-15T01:11:21.083Z,4.50
2023-08-15T01:12:21.132Z,4.60
2023-08-15T01:13:21.084Z,4.40
2023-08-15T01:14:21.097Z,4.50
2023-08-15T01:15:21.038Z,4.40
2023-08-15T01:16:21.057Z,4.20
2023-08-15T01:17:21.219Z,4.60
2023-08-15T01:18:21.010Z,4.70
2023-08-15T01:19:20.992Z,4.70
2023-08-15T01:20:20.985Z,4.60
2023-08-15T01:21:20.983Z,4.40
2023-08-15T01:22:20.981Z,4.50
2023-08-15T01:23:20.959Z,4.40
2023-08-15T01:24:20.946Z,4.60
2023-08-15T01:25:20.931Z,4.60
2023-08-15T01:26:20.955Z,4.90
2023-08-15T01:27:21.188Z,5.00
2023-08-15T01:28:20.897Z,4.40
2023-08-15T01:29:20.884Z,4.80
2023-08-15T01:30:20.874Z,4.90
2023-08-15T01:31:20.873Z,4.60
2023-08-15T01:32:20.865Z,4.60
2023-08-15T01:33:20.863Z,5.00
2023-08-15T01:34:20.835Z,4.70
2023-08-15T01:35:20.845Z,4.40
2023-08-15T01:36:20.821Z,4.70
2023-08-15T01:37:21.029Z,4.70
2023-08-15T01:38:20.786Z,4.60
2023-08-15T01:39:20.776Z,4.80
2023-08-15T01:40:20.774Z,4.90
2023-08-15T01:41:20.747Z,4.40
2023-08-15T01:42:20.741Z,4.50
2023-08-15T01:43:20.726Z,4.60
2023-08-15T01:44:20.724Z,4.90
2023-08-15T01:45:20.719Z,4.40
2023-08-15T01:46:20.768Z,4.90
2023-08-15T01:47:20.804Z,4.00
2023-08-15T01:48:20.675Z,4.70
2023-08-15T01:49:20.671Z,4.70
2023-08-15T01:50:20.669Z,4.60
2023-08-15T01:51:20.649Z,4.30
2023-08-15T01:52:20.805Z,4.60
2023-08-15T01:53:20.620Z,4.70
2023-08-15T01:54:20.623Z,4.40
2023-08-15T01:55:20.607Z,4.70
2023-08-15T01:56:20.589Z,4.80
2023-08-15T01:57:20.831Z,4.50
2023-08-15T01:58:20.562Z,4.50
2023-08-15T01:59:20.558Z,5.00
2023-08-15T02:00:20.545Z,4.90
2023-08-15T02:01:20.555Z,4.80
2023-08-15T02:02:20.610Z,4.80
2023-08-15T02:03:20.502Z,5.40
2023-08-15T02:04:20.508Z,5.00
2023-08-15T02:05:20.505Z,4.90
2023-08-15T02:06:20.478Z,4.90
2023-08-15T02:07:20.704Z,4.70
2023-08-15T02:08:20.463Z,5.10
2023-08-15T02:09:20.448Z,4.70
2023-08-15T02:10:20.429Z,5.20
2023-08-15T02:11:20.464Z,4.90
2023-08-15T02:12:20.406Z,5.10
2023-08-15T02:13:20.481Z,5.00
2023-08-15T02:14:20.397Z,5.00
2023-08-15T02:15:20.373Z,5.30
2023-08-15T02:16:20.416Z,5.20
2023-08-15T02:17:20.636Z,5.10
2023-08-15T02:18:20.354Z,5.00
2023-08-15T02:19:20.326Z,5.10
2023-08-15T02:20:20.321Z,5.20
2023-08-15T02:21:20.314Z,5.60
2023-08-15T02:22:20.312Z,5.90
2023-08-15T02:23:20.294Z,6.10
2023-08-15T02:24:20.276Z,5.70
2023-08-15T02:25:20.286Z,6.00
2023-08-15T02:26:20.259Z,6.10
2023-08-15T02:27:20.471Z,5.90
2023-08-15T02:28:20.228Z,5.30
2023-08-15T02:29:20.217Z,6.10
2023-08-15T02:30:20.210Z,6.30
2023-08-15T02:31:20.292Z,6.40
2023-08-15T02:32:20.198Z,6.00
2023-08-15T02:33:20.191Z,6.30
2023-08-15T02:34:20.169Z,6.20
2023-08-15T02:35:20.251Z,5.80
2023-08-15T02:36:20.165Z,6.00
2023-08-15T02:37:20.475Z,5.90
2023-08-15T02:38:20.119Z,6.30
2023-08-15T02:39:20.109Z,6.40
2023-08-15T02:40:20.100Z,5.70
2023-08-15T02:41:20.097Z,6.10
2023-08-15T02:42:20.083Z,6.20
2023-08-15T02:43:20.058Z,6.70
2023-08-15T02:44:20.051Z,6.10
2023-08-15T02:45:20.045Z,6.30
2023-08-15T02:46:20.086Z,6.40
2023-08-15T02:47:20.261Z,5.90
2023-08-15T02:48:20.017Z,6.00
2023-08-15T02:49:19.997Z,6.50
2023-08-15T02:50:19.981Z,6.10
2023-08-15T02:51:19.990Z,5.80
2023-08-15T02:52:19.961Z,5.90
2023-08-15T02:53:19.956Z,6.10
2023-08-15T02:54:19.943Z,6.10
2023-08-15T02:55:19.947Z,6.10
2023-08-15T02:56:19.922Z,6.00
2023-08-15T02:57:20.141Z,5.60
2023-08-15T02:58:19.917Z,6.10
2023-08-15T02:59:19.903Z,6.00
2023-08-15T03:00:19.890Z,6.00
2023-08-15T03:01:19.902Z,5.80
2023-08-15T03:02:19.866Z,6.60
2023-08-15T03:03:19.868Z,5.90
2023-08-15T03:04:19.823Z,6.50
2023-08-15T03:05:19.829Z,6.80
2023-08-15T03:06:19.808Z,6.80
2023-08-15T03:07:20.159Z,6.80
2023-08-15T03:08:19.783Z,6.60
2023-08-15T03:09:19.791Z,6.50
2023-08-15T03:10:19.782Z,6.10
2023-08-15T03:11:19.758Z,6.30
2023-08-15T03:12:19.743Z,6.80
2023-08-15T03:13:19.731Z,6.70
2023-08-15T03:14:19.730Z,6.80
2023-08-15T03:15:19.723Z,6.30
2023-08-15T03:16:19.728Z,6.90
2023-08-15T03:17:20.166Z,7.40
2023-08-15T03:18:19.673Z,7.30
2023-08-15T03:19:19.683Z,6.50
2023-08-15T03:20:19.654Z,7.10
2023-08-15T03:21:19.643Z,6.70
2023-08-15T03:22:19.629Z,6.80
2023-08-15T03:23:19.636Z,7.00
2023-08-15T03:24:19.626Z,6.70
2023-08-15T03:25:19.604Z,7.00
2023-08-15T03:26:19.591Z,6.20
2023-08-15T03:27:19.639Z,7.00
2023-08-15T03:28:19.572Z,7.30
2023-08-15T03:29:19.570Z,6.50
2023-08-15T03:30:19.538Z,6.60
2023-08-15T03:31:19.607Z,6.90
2023-08-15T03:32:19.548Z,6.90
2023-08-15T03:33:19.518Z,6.80
2023-08-15T03:34:19.511Z,6.40
2023-08-15T03:35:22.339Z,6.80
2023-08-15T03:36:19.486Z,6.40
2023-08-15T03:37:19.713Z,6.70
2023-08-15T03:38:19.468Z,6.50
2023-08-15T03:39:19.442Z,6.60
2023-08-15T03:40:19.433Z,6.40
2023-08-15T03:41:19.426Z,6.50
2023-08-15T03:42:19.421Z,6.50
2023-08-15T03:43:19.402Z,6.40
2023-08-15T03:44:19.390Z,6.20
2023-08-15T03:45:19.454Z,6.50
2023-08-15T03:46:19.462Z,6.20
2023-08-15T03:47:19.854Z,6.40
2023-08-15T03:48:19.343Z,6.40
2023-08-15T03:49:19.330Z,6.40
2023-08-15T03:50:19.329Z,6.70
2023-08-15T03:51:38.015Z,6.30
2023-08-15T03:52:19.320Z,6.50
2023-08-15T03:53:19.285Z,6.10
2023-08-15T03:54:19.286Z,7.50
2023-08-15T03:55:19.270Z,6.40
2023-08-15T03:56:19.266Z,6.70
2023-08-15T03:57:19.547Z,6.90
2023-08-15T03:58:19.233Z,6.90
2023-08-15T03:59:19.217Z,6.60
2023-08-15T04:00:19.209Z,6.80
2023-08-15T04:01:19.252Z,6.90
2023-08-15T04:02:19.184Z,7.00
2023-08-15T04:03:19.178Z,6.40
2023-08-15T04:04:19.190Z,6.40
2023-08-15T04:05:19.161Z,6.50
2023-08-15T04:06:19.160Z,6.60
2023-08-15T04:07:19.525Z,6.30
2023-08-15T04:08:19.117Z,6.70
2023-08-15T04:09:19.104Z,6.00
2023-08-15T04:10:19.104Z,6.40
2023-08-15T04:11:19.088Z,6.00
2023-08-15T04:12:19.154Z,6.80
2023-08-15T04:13:19.062Z,6.30
2023-08-15T04:14:19.065Z,6.50
2023-08-15T04:15:19.054Z,7.00
2023-08-15T04:16:19.090Z,6.50
2023-08-15T04:17:19.233Z,6.80
2023-08-15T04:18:19.011Z,7.10
2023-08-15T04:19:19.000Z,6.70
2023-08-15T04:20:18.994Z,6.80
2023-08-15T04:21:18.976Z,6.60
2023-08-15T04:22:18.964Z,6.70
2023-08-15T04:23:18.946Z,6.60
2023-08-15T04:24:18.984Z,6.80
2023-08-15T04:25:18.938Z,6.60
2023-08-15T04:26:18.919Z,6.60
2023-08-15T04:27:19.213Z,6.90
2023-08-15T04:28:18.901Z,6.90
2023-08-15T04:29:18.889Z,7.20
2023-08-15T04:30:18.877Z,6.90
2023-08-15T04:31:18.901Z,7.20
2023-08-15T04:32:18.856Z,7.00
2023-08-15T04:33:18.838Z,6.60
2023-08-15T04:34:18.842Z,6.90
2023-08-15T04:35:18.837Z,6.80
2023-08-15T04:36:18.809Z,6.30
2023-08-15T04:37:19.116Z,6.90
2023-08-15T04:38:18.798Z,6.40
2023-08-15T04:39:18.788Z,6.40
2023-08-15T04:40:18.820Z,6.00
2023-08-15T04:41:18.760Z,6.70
2023-08-15T04:42:18.753Z,6.90
2023-08-15T04:43:18.738Z,6.40
2023-08-15T04:44:18.729Z,6.80
2023-08-15T04:45:18.708Z,6.40
2023-08-15T04:46:18.737Z,6.40
2023-08-15T04:47:18.831Z,6.50
2023-08-15T04:48:18.688Z,6.30
2023-08-15T04:49:18.665Z,6.10
2023-08-15T04:50:18.671Z,6.20
2023-08-15T04:51:18.635Z,5.80
2023-08-15T04:52:18.634Z,6.40
2023-08-15T04:53:18.625Z,6.20
2023-08-15T04:54:18.608Z,5.90
2023-08-15T04:55:18.595Z,6.10
2023-08-15T04:56:18.588Z,6.40
2023-08-15T04:57:18.826Z,6.40
2023-08-15T04:58:18.579Z,6.30
2023-08-15T04:59:18.549Z,6.30
2023-08-15T05:00:18.551Z,6.10
2023-08-15T05:01:18.561Z,5.90
2023-08-15T05:02:18.534Z,6.00
2023-08-15T05:03:18.506Z,6.40
2023-08-15T05:04:18.503Z,5.70
2023-08-15T05:05:18.518Z,5.70
2023-08-15T05:06:18.478Z,6.20
2023-08-15T05:07:18.904Z,6.00
2023-08-15T05:08:18.457Z,6.30
2023-08-15T05:09:18.460Z,6.70
2023-08-15T05:10:18.452Z,6.50
2023-08-15T05:11:18.431Z,6.60
2023-08-15T05:12:18.432Z,6.60
2023-08-15T05:13:18.399Z,6.60
2023-08-15T05:14:18.397Z,6.90
2023-08-15T05:15:18.374Z,6.50
2023-08-15T05:16:18.411Z,6.80
2023-08-15T05:17:18.773Z,6.60
2023-08-15T05:18:18.353Z,6.70
2023-08-15T05:19:18.333Z,6.60
2023-08-15T05:20:18.337Z,7.00
2023-08-15T05:21:18.318Z,7.00
2023-08-15T05:22:18.313Z,7.30
2023-08-15T05:23:18.294Z,7.20
2023-08-15T05:24:18.281Z,6.90
2023-08-15T05:25:18.281Z,7.70
2023-08-15T05:26:18.267Z,7.40
2023-08-15T05:27:18.294Z,7.10
2023-08-15T05:28:18.238Z,6.50
2023-08-15T05:29:18.226Z,7.00
2023-08-15T05:30:18.227Z,6.60
2023-08-15T05:31:18.254Z,6.80
2023-08-15T05:32:18.195Z,6.80
2023-08-15T05:33:18.186Z,6.90
2023-08-15T05:34:18.174Z,6.70
2023-08-15T05:35:18.170Z,7.40
2023-08-15T05:36:18.154Z,6.90
2023-08-15T05:37:18.284Z,7.70
2023-08-15T05:38:18.128Z,7.00
2023-08-15T05:39:18.117Z,7.20
2023-08-15T05:40:18.118Z,7.00
2023-08-15T05:41:18.100Z,6.90
2023-08-15T05:42:18.082Z,7.30
2023-08-15T05:43:18.067Z,6.90
2023-08-15T05:44:18.066Z,7.10
2023-08-15T05:45:18.044Z,7.50
2023-08-15T05:46:18.059Z,6.70
2023-08-15T05:47:18.045Z,7.10
2023-08-15T05:48:18.031Z,6.70
2023-08-15T05:49:18.010Z,7.10
2023-08-15T05:50:17.993Z,7.10
2023-08-15T05:51:17.986Z,7.20
2023-08-15T05:52:17.965Z,7.80
2023-08-15T05:53:17.972Z,7.90
2023-08-15T05:54:17.965Z,7.00
2023-08-15T05:55:17.939Z,7.10
2023-08-15T05:56:17.923Z,7.20
2023-08-15T05:57:17.927Z,7.20
2023-08-15T05:58:17.942Z,7.30
2023-08-15T05:59:17.907Z,6.80
2023-08-15T06:00:17.882Z,7.10
2023-08-15T06:01:17.928Z,6.60
2023-08-15T06:02:17.858Z,7.10
2023-08-15T06:03:26.924Z,6.70
2023-08-15T06:04:17.865Z,6.80
2023-08-15T06:05:17.836Z,6.70
2023-08-15T06:06:17.815Z,6.80
2023-08-15T06:07:17.806Z,7.10
2023-08-15T06:08:17.799Z,7.00
2023-08-15T06:09:18.905Z,6.90
2023-08-15T06:10:17.774Z,9.70
2023-08-15T06:11:17.766Z,7.60
2023-08-15T06:12:17.758Z,7.10
2023-08-15T06:13:17.868Z,6.60
2023-08-15T06:14:17.728Z,7.50
2023-08-15T06:15:17.719Z,6.80
2023-08-15T06:16:17.752Z,6.40
2023-08-15T06:17:17.715Z,7.00
2023-08-15T06:18:17.686Z,7.20
2023-08-15T06:19:17.675Z,6.80
2023-08-15T06:20:17.670Z,7.30
2023-08-15T06:21:17.657Z,7.00
2023-08-15T06:22:17.651Z,7.00
2023-08-15T06:23:17.661Z,6.70
2023-08-15T06:24:17.632Z,7.40
2023-08-15T06:25:17.630Z,7.20
2023-08-15T06:26:17.604Z,6.90
2023-08-15T06:27:17.627Z,7.10
2023-08-15T06:28:17.574Z,6.50
2023-08-15T06:29:17.576Z,7.20
2023-08-15T06:30:17.558Z,6.50
2023-08-15T06:31:17.647Z,6.90
2023-08-15T06:32:17.533Z,6.70
2023-08-15T06:33:17.532Z,7.00
2023-08-15T06:34:17.518Z,6.80
2023-08-15T06:35:17.511Z,6.70
2023-08-15T06:36:17.499Z,6.40
2023-08-15T06:37:17.487Z,5.90
2023-08-15T06:38:17.478Z,6.50
2023-08-15T06:39:17.461Z,6.10
2023-08-15T06:40:17.454Z,6.10
2023-08-15T06:41:17.447Z,5.90
2023-08-15T06:42:17.425Z,6.20
2023-08-15T06:43:17.417Z,6.40
2023-08-15T06:44:17.404Z,6.40
2023-08-15T06:45:17.434Z,6.20
2023-08-15T06:46:17.406Z,6.70
2023-08-15T06:47:17.371Z,6.40
2023-08-15T06:48:17.357Z,6.40
2023-08-15T06:49:17.354Z,6.50
2023-08-15T06:50:17.351Z,6.60
2023-08-15T06:51:17.341Z,6.30
2023-08-15T06:52:17.315Z,6.40
2023-08-15T06:53:17.317Z,6.30
2023-08-15T06:54:17.301Z,6.70
2023-08-15T06:55:17.296Z,6.50
2023-08-15T06:56:17.270Z,6.50
2023-08-15T06:57:17.261Z,7.10
2023-08-15T06:58:17.245Z,6.90
2023-08-15T06:59:17.310Z,7.20
2023-08-15T07:00:17.251Z,6.80
2023-08-15T07:01:17.255Z,6.90
2023-08-15T07:02:17.203Z,7.10
2023-08-15T07:03:17.314Z,6.70
2023-08-15T07:04:17.202Z,6.80
2023-08-15T07:05:17.179Z,7.40
2023-08-15T07:06:17.171Z,7.20
2023-08-15T07:07:17.152Z,7.60
2023-08-15T07:08:17.149Z,7.30
2023-08-15T07:09:17.142Z,6.70
2023-08-15T07:10:17.127Z,6.90
2023-08-15T07:11:17.118Z,7.30
2023-08-15T07:12:17.144Z,7.40
2023-08-15T07:13:17.097Z,7.60
2023-08-15T07:14:17.075Z,7.50
2023-08-15T07:15:17.069Z,8.10
2023-08-15T07:16:17.099Z,6.90
2023-08-15T07:17:17.049Z,7.50
2023-08-15T07:18:17.041Z,8.10
2023-08-15T07:19:17.021Z,6.90
2023-08-15T07:20:17.005Z,8.40
2023-08-15T07:21:22.320Z,8.20
2023-08-15T07:22:16.991Z,8.20
2023-08-15T07:23:16.985Z,10.50
2023-08-15T07:24:16.961Z,8.90
2023-08-15T07:25:16.957Z,8.70
2023-08-15T07:26:16.951Z,10.90
2023-08-15T07:27:16.942Z,9.30
2023-08-15T07:28:16.925Z,8.40
2023-08-15T07:29:16.913Z,8.00
2023-08-15T07:30:16.898Z,7.80
2023-08-15T07:31:16.945Z,8.90
2023-08-15T07:32:16.883Z,8.40
2023-08-15T07:33:16.878Z,8.30
2023-08-15T07:34:16.877Z,8.70
2023-08-15T07:35:16.846Z,8.60
2023-08-15T07:36:16.826Z,8.90
2023-08-15T07:37:16.835Z,8.90
2023-08-15T07:38:16.808Z,8.70
2023-08-15T07:39:16.819Z,8.20
2023-08-15T07:40:16.807Z,8.50
2023-08-15T07:41:16.793Z,9.00
2023-08-15T07:42:16.779Z,9.10
2023-08-15T07:43:16.757Z,8.60
2023-08-15T07:44:16.768Z,8.90
2023-08-15T07:45:16.736Z,9.00
2023-08-15T07:46:16.806Z,9.40
2023-08-15T07:47:16.704Z,9.40
2023-08-15T07:48:16.708Z,9.90
2023-08-15T07:49:16.689Z,10.40
2023-08-15T07:50:16.704Z,10.10
2023-08-15T07:51:16.674Z,10.30
2023-08-15T07:52:16.662Z,10.00
2023-08-15T07:53:16.642Z,10.00
2023-08-15T07:54:16.658Z,10.50
2023-08-15T07:55:16.627Z,9.90
2023-08-15T07:56:16.623Z,10.70
2023-08-15T07:57:16.598Z,9.60
2023-08-15T07:58:16.593Z,10.60
2023-08-15T07:59:16.574Z,11.10
2023-08-15T08:00:16.607Z,11.30
2023-08-15T08:01:16.580Z,11.00
2023-08-15T08:02:16.547Z,11.00
2023-08-15T08:03:16.530Z,11.50
2023-08-15T08:04:16.527Z,10.50
2023-08-15T08:05:16.538Z,11.50
2023-08-15T08:06:31.682Z,11.70
2023-08-15T08:07:16.531Z,11.80
2023-08-15T08:08:16.505Z,11.40
2023-08-15T08:09:16.477Z,10.90
2023-08-15T08:10:16.469Z,11.40
2023-08-15T08:11:16.455Z,11.00
2023-08-15T08:12:16.441Z,11.40
2023-08-15T08:13:17.218Z,11.50
2023-08-15T08:14:16.427Z,11.90
2023-08-15T08:15:16.417Z,11.20
2023-08-15T08:16:16.410Z,11.60
2023-08-15T08:17:16.387Z,10.90
2023-08-15T08:18:16.371Z,10.90
2023-08-15T08:19:16.371Z,11.20
2023-08-15T08:20:16.349Z,11.30
2023-08-15T08:21:16.346Z,11.50
2023-08-15T08:22:16.334Z,11.10
2023-08-15T08:23:16.311Z,10.60
2023-08-15T08:24:16.321Z,10.80
2023-08-15T08:25:16.289Z,11.00
2023-08-15T08:26:16.287Z,10.80
2023-08-15T08:27:16.272Z,11.50
2023-08-15T08:28:16.272Z,9.70
2023-08-15T08:29:16.261Z,10.40
2023-08-15T08:30:16.284Z,10.10
2023-08-15T08:31:16.258Z,9.70
2023-08-15T08:32:16.219Z,9.40
2023-08-15T08:33:16.227Z,10.10
2023-08-15T08:34:16.209Z,8.90
2023-08-15T08:35:16.254Z,8.40
2023-08-15T08:36:16.251Z,8.00
2023-08-15T08:37:16.165Z,7.10
2023-08-15T08:38:16.799Z,5.80
2023-08-15T08:39:29.605Z,5.80
2023-08-15T08:40:16.149Z,6.10
2023-08-15T08:41:16.130Z,6.00
2023-08-15T08:42:16.121Z,5.90
2023-08-15T08:43:16.106Z,5.50
2023-08-15T08:44:16.089Z,5.40
2023-08-15T08:45:16.153Z,5.70
2023-08-15T08:46:16.139Z,5.50
2023-08-15T08:47:16.076Z,5.90
2023-08-15T08:48:16.043Z,5.70
2023-08-15T08:49:16.047Z,4.80
2023-08-15T08:50:16.051Z,4.90
2023-08-15T08:51:16.022Z,5.50
2023-08-15T08:52:16.039Z,5.40
2023-08-15T08:53:15.997Z,5.20
2023-08-15T08:54:19.181Z,5.10
2023-08-15T08:55:15.977Z,5.40
2023-08-15T08:56:15.961Z,4.90
2023-08-15T08:57:15.954Z,4.90
2023-08-15T08:58:15.960Z,5.40
2023-08-15T08:59:15.931Z,6.20
2023-08-15T09:00:15.922Z,5.70
2023-08-15T09:01:15.950Z,6.10
2023-08-15T09:02:15.985Z,4.80
2023-08-15T09:03:16.029Z,5.70
2023-08-15T09:04:15.865Z,6.60
2023-08-15T09:05:15.867Z,6.10
2023-08-15T09:06:15.856Z,5.30
2023-08-15T09:07:15.865Z,5.50
2023-08-15T09:08:15.828Z,4.80
2023-08-15T09:09:15.833Z,5.20
2023-08-15T09:10:15.808Z,4.60
2023-08-15T09:11:15.814Z,5.00
2023-08-15T09:12:15.790Z,5.20
2023-08-15T09:13:15.784Z,4.90
2023-08-15T09:14:15.758Z,4.90
2023-08-15T09:15:15.779Z,4.60
2023-08-15T09:16:15.800Z,9.10
2023-08-15T09:17:15.755Z,5.20
2023-08-15T09:18:15.734Z,5.60
2023-08-15T09:19:15.719Z,4.80
2023-08-15T09:20:15.759Z,4.60
2023-08-15T09:21:15.689Z,4.30
2023-08-15T09:22:15.673Z,4.00
2023-08-15T09:23:15.670Z,3.80
2023-08-15T09:24:15.649Z,3.90
2023-08-15T09:25:15.658Z,3.20
2023-08-15T09:26:15.650Z,2.40
2023-08-15T09:27:15.621Z,2.50
2023-08-15T09:28:15.606Z,2.70
2023-08-15T09:29:15.611Z,3.00
2023-08-15T09:30:15.590Z,3.00
2023-08-15T09:31:15.632Z,3.10
2023-08-15T09:32:15.564Z,2.40
2023-08-15T09:33:15.560Z,2.40
2023-08-15T09:34:15.559Z,2.10
2023-08-15T09:35:15.552Z,2.00
2023-08-15T09:36:15.520Z,2.00
2023-08-15T09:37:15.511Z,1.90
2023-08-15T09:38:15.510Z,2.00
2023-08-15T09:39:15.498Z,1.80
2023-08-15T09:40:15.488Z,1.90
2023-08-15T09:41:15.473Z,2.10
2023-08-15T09:42:15.458Z,1.60
2023-08-15T09:43:15.460Z,1.60
2023-08-15T09:44:15.446Z,1.80
2023-08-15T09:45:15.443Z,1.70
2023-08-15T09:46:15.458Z,1.60
2023-08-15T09:47:15.413Z,1.70
2023-08-15T09:48:15.394Z,1.70
2023-08-15T09:49:15.383Z,1.60
2023-08-15T09:50:15.384Z,1.60
2023-08-15T09:51:15.360Z,1.70
2023-08-15T09:52:15.345Z,1.50
2023-08-15T09:53:15.356Z,1.60
2023-08-15T09:54:15.323Z,1.60
2023-08-15T09:55:15.317Z,1.60
2023-08-15T09:56:15.303Z,1.70
2023-08-15T09:57:15.304Z,1.90
2023-08-15T09:58:15.294Z,1.80
2023-08-15T09:59:16.553Z,1.60
2023-08-15T10:00:15.302Z,1.80
2023-08-15T10:01:15.274Z,1.70
2023-08-15T10:02:15.249Z,2.20
2023-08-15T10:03:15.331Z,1.80
2023-08-15T10:04:15.224Z,2.00
2023-08-15T10:05:15.225Z,1.60
2023-08-15T10:06:15.206Z,1.90
2023-08-15T10:07:15.199Z,1.70
2023-08-15T10:08:15.174Z,1.70
2023-08-15T10:09:15.171Z,1.80
2023-08-15T10:10:15.185Z,2.10
2023-08-15T10:11:15.161Z,2.10
2023-08-15T10:12:15.159Z,2.10
2023-08-15T10:13:15.123Z,2.50
2023-08-15T10:14:15.108Z,6.00
2023-08-15T10:15:15.102Z,3.70
2023-08-15T10:16:15.121Z,2.90
2023-08-15T10:17:15.191Z,2.70
2023-08-15T10:18:15.095Z,3.00
2023-08-15T10:19:15.060Z,2.50
2023-08-15T10:20:15.048Z,2.70
2023-08-15T10:21:15.045Z,2.50
2023-08-15T10:22:15.031Z,2.20
2023-08-15T10:23:15.067Z,2.40
2023-08-15T10:24:14.996Z,2.70
2023-08-15T10:25:15.017Z,2.50
2023-08-15T10:26:14.992Z,2.40
2023-08-15T10:27:14.998Z,2.50
2023-08-15T10:28:14.962Z,2.40
2023-08-15T10:29:14.973Z,2.30
2023-08-15T10:30:14.942Z,2.90
2023-08-15T10:31:14.971Z,2.50
2023-08-15T10:32:14.912Z,2.60
2023-08-15T10:33:14.971Z,2.60
2023-08-15T10:34:14.887Z,2.90
2023-08-15T10:35:14.896Z,2.40
2023-08-15T10:36:14.864Z,2.40
2023-08-15T10:37:14.859Z,2.70
2023-08-15T10:38:14.851Z,2.30
2023-08-15T10:39:14.839Z,2.20
2023-08-15T10:40:14.851Z,2.50
2023-08-15T10:41:14.816Z,2.20
2023-08-15T10:42:14.798Z,2.00
2023-08-15T10:43:14.791Z,2.60
2023-08-15T10:44:14.788Z,2.30
2023-08-15T10:45:14.787Z,2.40
2023-08-15T10:46:14.776Z,2.40
2023-08-15T10:47:14.753Z,2.20
2023-08-15T10:48:14.798Z,2.20
2023-08-15T10:49:14.747Z,2.00
2023-08-15T10:50:14.727Z,1.90
2023-08-15T10:51:14.725Z,2.00
2023-08-15T10:52:14.687Z,2.20
2023-08-15T10:53:16.679Z,2.30
2023-08-15T10:54:14.936Z,2.00
2023-08-15T10:55:14.688Z,1.90
2023-08-15T10:56:14.675Z,2.10
2023-08-15T10:57:14.637Z,1.80
2023-08-15T10:58:14.628Z,1.80
2023-08-15T10:59:14.682Z,2.10
2023-08-15T11:00:14.599Z,1.80
2023-08-15T11:01:14.596Z,1.60
2023-08-15T11:02:14.609Z,1.50
2023-08-15T11:03:14.625Z,1.30
2023-08-15T11:04:14.563Z,1.40
2023-08-15T11:05:14.585Z,1.50
2023-08-15T11:06:14.536Z,1.50
2023-08-15T11:07:14.535Z,1.80
2023-08-15T11:08:14.524Z,1.50
2023-08-15T11:09:14.509Z,1.50
2023-08-15T11:10:14.513Z,1.90
2023-08-15T11:11:14.488Z,1.80
2023-08-15T11:12:14.498Z,2.10
2023-08-15T11:13:14.484Z,1.50
2023-08-15T11:14:14.474Z,1.70
2023-08-15T11:15:14.440Z,1.60
2023-08-15T11:16:14.463Z,1.60
2023-08-15T11:17:14.448Z,1.60
2023-08-15T11:18:14.404Z,1.70
2023-08-15T11:19:14.396Z,1.40
2023-08-15T11:20:14.383Z,1.30
2023-08-15T11:21:14.395Z,1.20
2023-08-15T11:22:14.372Z,1.50
2023-08-15T11:23:14.354Z,1.40
2023-08-15T11:24:14.351Z,1.30
2023-08-15T11:25:14.343Z,1.30
2023-08-15T11:26:14.347Z,1.20
2023-08-15T11:27:14.336Z,1.20
2023-08-15T11:28:14.326Z,1.20
2023-08-15T11:29:14.771Z,1.10
2023-08-15T11:30:14.275Z,1.50
2023-08-15T11:32:14.297Z,1.10
2023-08-15T11:33:14.247Z,1.00
2023-08-15T11:34:14.229Z,1.00
2023-08-15T11:35:14.230Z,1.20
2023-08-15T11:36:14.258Z,1.30
2023-08-15T11:37:14.202Z,1.00
2023-08-15T11:38:14.192Z,1.30
2023-08-15T11:39:14.440Z,1.20
2023-08-15T11:40:14.166Z,1.30
2023-08-15T11:41:14.170Z,1.20
2023-08-15T11:42:16.028Z,1.20
2023-08-15T11:43:14.173Z,1.30
2023-08-15T11:44:14.123Z,1.20
2023-08-15T11:45:14.130Z,1.10
2023-08-15T11:46:14.192Z,1.40
2023-08-15T11:47:14.097Z,1.60
2023-08-15T11:48:14.945Z,2.60
2023-08-15T11:49:14.077Z,2.80
2023-08-15T11:50:14.075Z,1.10
2023-08-15T11:51:14.052Z,1.10
2023-08-15T11:52:14.044Z,1.10
2023-08-15T11:53:14.046Z,1.20
2023-08-15T11:54:14.022Z,1.20
2023-08-15T11:55:14.043Z,1.30
2023-08-15T11:56:14.001Z,1.20
2023-08-15T11:57:14.057Z,1.20
2023-08-15T11:58:13.981Z,1.20
2023-08-15T11:59:13.976Z,1.20
2023-08-15T12:00:13.982Z,1.30
2023-08-15T12:01:13.985Z,1.00
2023-08-15T12:02:13.943Z,1.20
2023-08-15T12:03:14.053Z,1.20
2023-08-15T12:04:13.921Z,1.30
2023-08-15T12:05:13.910Z,1.10
2023-08-15T12:06:13.921Z,1.30
2023-08-15T12:07:13.878Z,0.90
2023-08-15T12:08:13.867Z,1.20
2023-08-15T12:09:14.115Z,1.20
2023-08-15T12:10:13.858Z,1.30
2023-08-15T12:11:13.888Z,1.40
2023-08-15T12:12:13.831Z,1.30
2023-08-15T12:13:13.827Z,1.10
2023-08-15T12:14:13.814Z,1.70
2023-08-15T12:15:13.806Z,1.00
2023-08-15T12:16:13.847Z,1.20
2023-08-15T12:17:13.784Z,1.10
2023-08-15T12:18:13.791Z,1.00
2023-08-15T12:19:13.764Z,0.90
2023-08-15T12:20:13.737Z,1.00
2023-08-15T12:21:14.241Z,1.10
2023-08-15T12:22:13.718Z,0.80
2023-08-15T12:23:22.960Z,1.00
2023-08-15T12:24:13.701Z,1.10
2023-08-15T12:25:13.693Z,1.10
2023-08-15T12:26:13.681Z,1.20
2023-08-15T12:27:13.669Z,1.10
2023-08-15T12:28:13.660Z,1.10
2023-08-15T12:29:13.937Z,1.10
2023-08-15T12:30:16.560Z,1.00
2023-08-15T12:31:13.639Z,1.10
2023-08-15T12:32:13.615Z,1.00
2023-08-15T12:33:16.066Z,1.30
2023-08-15T12:34:13.590Z,0.80
2023-08-15T12:35:13.585Z,1.30
2023-08-15T12:36:13.576Z,1.10
2023-08-15T12:37:13.583Z,1.10
2023-08-15T12:38:13.547Z,1.10
2023-08-15T12:39:13.541Z,1.00
2023-08-15T12:40:22.042Z,1.10
2023-08-15T12:41:13.523Z,1.00
2023-08-15T12:42:13.515Z,1.10
2023-08-15T12:43:13.505Z,1.30
2023-08-15T12:44:13.497Z,1.30
2023-08-15T12:45:13.483Z,1.00
2023-08-15T12:46:13.672Z,1.10
2023-08-15T12:47:13.463Z,1.00
2023-08-15T12:48:13.460Z,1.10
2023-08-15T12:49:13.433Z,1.00
2023-08-15T12:50:13.419Z,1.20
2023-08-15T12:51:13.417Z,1.00
2023-08-15T12:52:13.390Z,1.10
2023-08-15T12:53:13.394Z,1.20
2023-08-15T12:54:13.374Z,1.10
2023-08-15T12:55:13.364Z,1.10
2023-08-15T12:56:13.371Z,1.00
2023-08-15T12:57:13.346Z,1.10
2023-08-15T12:58:13.331Z,1.50
2023-08-15T12:59:13.348Z,0.90
2023-08-15T13:00:13.321Z,1.00
2023-08-15T13:01:13.324Z,1.00
2023-08-15T13:02:13.285Z,1.10
2023-08-15T13:03:13.326Z,0.90
2023-08-15T13:04:13.277Z,1.20
2023-08-15T13:05:13.314Z,1.20
2023-08-15T13:06:13.253Z,1.00
2023-08-15T13:07:13.237Z,1.00
2023-08-15T13:08:13.220Z,0.90
2023-08-15T13:09:13.211Z,1.20
2023-08-15T13:10:13.218Z,1.10
2023-08-15T13:11:13.190Z,0.90
2023-08-15T13:12:13.184Z,1.40
2023-08-15T13:13:13.178Z,1.40
2023-08-15T13:14:13.173Z,0.90
2023-08-15T13:15:13.160Z,1.20
2023-08-15T13:16:13.161Z,1.10
2023-08-15T13:17:13.127Z,0.80
2023-08-15T13:18:13.158Z,1.10